createdAt,value
2019-01-27T00:02:06.257Z,94464.45
2019-01-27T00:04:38.195Z,94460.98
2019-01-27T00:07:09.362Z,94462.02
2019-01-27T00:09:55.570Z,94449.31
2019-01-27T00:12:31.734Z,94440.94
2019-01-27T00:15:04.874Z,94439.06
2019-01-27T00:17:36.963Z,94435.11
2019-01-27T00:20:09.862Z,94427.24
2019-01-27T00:22:40.719Z,94426.97
2019-01-27T00:25:11.535Z,94422.17
2019-01-27T00:27:43.203Z,94428.52
2019-01-27T00:30:21.359Z,94414.27
2019-01-27T00:32:52.363Z,94412.95
2019-01-27T00:35:24.727Z,94404.26
2019-01-27T00:37:55.877Z,94403.77
2019-01-27T00:40:26.725Z,94400.09
2019-01-27T00:42:57.624Z,94394.30
2019-01-27T00:45:31.858Z,94389.59
2019-01-27T00:48:04.515Z,94386.40
2019-01-27T00:50:36.220Z,94390.39
2019-01-27T00:53:08.629Z,94384.56
2019-01-27T00:55:39.854Z,94380.86
2019-01-27T00:58:13.164Z,94372.95
2019-01-27T01:00:47.078Z,94369.55
2019-01-27T01:03:18.408Z,94369.00
2019-01-27T01:05:50.265Z,94367.41
2019-01-27T01:08:21.930Z,94358.95
2019-01-27T01:10:52.761Z,94357.14
2019-01-27T01:13:23.623Z,94356.41
2019-01-27T01:15:54.711Z,94352.67
2019-01-27T01:18:28.618Z,94347.98
2019-01-27T01:21:00.962Z,94344.38
2019-01-27T01:23:32.473Z,94349.89
2019-01-27T01:26:08.085Z,94343.02
2019-01-27T01:28:39.250Z,94340.14
2019-01-27T01:31:11.803Z,94335.39
2019-01-27T01:33:43.893Z,94334.11
2019-01-27T01:36:15.576Z,94326.20
2019-01-27T01:38:46.862Z,94322.77
2019-01-27T01:41:20.169Z,94316.98
2019-01-27T01:43:51.249Z,94309.59
2019-01-27T01:46:24.031Z,94307.69
2019-01-27T01:48:55.005Z,94302.45
2019-01-27T01:51:26.190Z,94299.02
2019-01-27T01:53:58.664Z,94292.95
2019-01-27T01:56:29.583Z,94294.83
2019-01-27T01:59:01.419Z,94287.41
2019-01-27T02:01:32.968Z,94273.16
2019-01-27T02:04:07.455Z,94263.69
2019-01-27T02:06:38.462Z,94259.00
2019-01-27T02:09:11.548Z,94253.97
2019-01-27T02:11:42.725Z,94250.81
2019-01-27T02:14:16.487Z,94244.75
2019-01-27T02:16:47.651Z,94243.71
2019-01-27T02:19:18.650Z,94236.84
2019-01-27T02:21:49.945Z,94224.98
2019-01-27T02:24:21.555Z,94213.41
2019-01-27T02:26:53.047Z,94217.08
2019-01-27T02:29:23.897Z,94206.56
2019-01-27T02:31:55.736Z,94203.41
2019-01-27T02:34:26.556Z,94189.41
2019-01-27T02:36:57.399Z,94188.36
2019-01-27T02:39:28.193Z,94183.64
2019-01-27T02:41:59.508Z,94181.55
2019-01-27T02:44:30.842Z,94167.55
2019-01-27T02:47:06.250Z,94164.42
2019-01-27T02:49:39.212Z,94147.55
2019-01-27T02:52:12.059Z,94141.52
2019-01-27T02:54:43.452Z,94132.79
2019-01-27T02:57:16.368Z,94125.13
2019-01-27T02:59:50.533Z,94115.14
2019-01-27T03:02:21.758Z,94113.02
2019-01-27T03:04:54.546Z,94106.70
2019-01-27T03:07:36.810Z,94100.89
2019-01-27T03:10:56.540Z,94098.80
2019-01-27T03:13:27.334Z,94100.66
2019-01-27T03:16:02.381Z,94089.31
2019-01-27T03:18:33.568Z,94088.27
2019-01-27T03:21:10.104Z,94090.91
2019-01-27T03:23:40.891Z,94086.96
2019-01-27T03:26:12.725Z,94087.48
2019-01-27T03:28:43.882Z,94083.25
2019-01-27T03:31:14.888Z,94083.53
2019-01-27T03:33:47.746Z,94078.79
2019-01-27T03:36:18.915Z,94073.53
2019-01-27T03:38:49.901Z,94068.54
2019-01-27T03:41:21.367Z,94060.09
2019-01-27T03:43:52.274Z,94061.17
2019-01-27T03:46:23.102Z,94059.29
2019-01-27T03:48:59.855Z,94051.66
2019-01-27T03:51:37.585Z,94052.17
2019-01-27T03:54:09.011Z,94038.75
2019-01-27T03:56:39.884Z,94039.03
2019-01-27T03:59:14.275Z,94034.54
2019-01-27T04:01:45.123Z,94034.02
2019-01-27T04:04:21.512Z,94035.05
2019-01-27T04:07:24.387Z,94024.77
2019-01-27T04:09:57.455Z,94016.07
2019-01-27T04:12:32.850Z,94009.25
2019-01-27T04:15:03.940Z,94007.12
2019-01-27T04:17:37.512Z,94006.06
2019-01-27T04:20:11.750Z,94005.80
2019-01-27T04:22:42.629Z,93995.52
2019-01-27T04:25:14.399Z,93997.38
2019-01-27T04:27:46.809Z,93983.12
2019-01-27T04:30:27.353Z,93979.70
2019-01-27T04:32:59.170Z,93972.58
2019-01-27T04:35:30.437Z,93971.55
2019-01-27T04:38:02.203Z,93962.05
2019-01-27T04:40:33.505Z,93957.82
2019-01-27T04:43:06.517Z,93960.46
2019-01-27T04:45:38.639Z,93953.32
2019-01-27T04:48:09.904Z,93945.41
2019-01-27T04:50:40.648Z,93946.47
2019-01-27T04:53:11.460Z,93943.05
2019-01-27T04:55:42.489Z,93937.77
2019-01-27T04:58:14.870Z,93933.02
2019-01-27T05:00:47.873Z,93927.78
2019-01-27T05:03:33.192Z,93928.83
2019-01-27T05:06:08.887Z,93924.88
2019-01-27T05:08:39.735Z,93921.45
2019-01-27T05:11:14.831Z,93922.23
2019-01-27T05:13:45.921Z,93920.38
2019-01-27T05:16:16.924Z,93914.08
2019-01-27T05:18:50.433Z,93905.64
2019-01-27T05:21:22.574Z,93905.90
2019-01-27T05:23:53.407Z,93896.94
2019-01-27T05:26:24.285Z,93891.38
2019-01-27T05:28:57.309Z,93887.97
2019-01-27T05:31:28.145Z,93893.49
2019-01-27T05:34:01.436Z,93887.70
2019-01-27T05:36:32.373Z,93881.37
2019-01-27T05:39:05.667Z,93887.17
2019-01-27T05:41:37.306Z,93877.67
2019-01-27T05:44:08.141Z,93886.39
2019-01-27T05:46:39.039Z,93875.58
2019-01-27T05:49:09.788Z,93874.26
2019-01-27T05:51:41.910Z,93881.11
2019-01-27T05:54:14.332Z,93868.73
2019-01-27T05:56:45.422Z,93863.19
2019-01-27T05:59:16.255Z,93862.12
2019-01-27T06:01:47.025Z,93859.75
2019-01-27T06:04:24.372Z,93856.88
2019-01-27T06:06:55.197Z,93851.86
2019-01-27T06:09:25.991Z,93845.02
2019-01-27T06:11:58.095Z,93832.63
2019-01-27T06:14:28.919Z,93824.71
2019-01-27T06:16:59.766Z,93811.80
2019-01-27T06:19:31.519Z,93809.95
2019-01-27T06:22:03.942Z,93802.30
2019-01-27T06:24:36.485Z,93807.85
2019-01-27T06:27:07.312Z,93805.20
2019-01-27T06:29:38.053Z,93787.55
2019-01-27T06:32:10.793Z,93795.73
2019-01-27T06:34:41.572Z,93795.44
2019-01-27T06:37:13.112Z,93782.27
2019-01-27T06:39:43.927Z,93777.53
2019-01-27T06:42:14.822Z,93774.63
2019-01-27T06:44:46.373Z,93785.17
2019-01-27T06:47:18.042Z,93775.70
2019-01-27T06:49:48.964Z,93782.03
2019-01-27T06:52:19.686Z,93766.45
2019-01-27T06:54:50.724Z,93765.94
2019-01-27T06:57:21.659Z,93773.05
2019-01-27T06:59:59.893Z,93766.44
2019-01-27T07:02:45.432Z,93769.89
2019-01-27T07:05:22.181Z,93764.59
2019-01-27T07:08:04.068Z,93764.86
2019-01-27T07:10:46.498Z,93765.66
2019-01-27T07:13:29.325Z,93766.17
2019-01-27T07:16:27.139Z,93756.69
2019-01-27T07:19:20.299Z,93751.68
2019-01-27T07:22:11.870Z,93751.94
2019-01-27T07:24:50.492Z,93753.53
2019-01-27T07:27:38.524Z,93747.73
2019-01-27T07:30:30.394Z,93749.57
2019-01-27T07:33:26.418Z,93741.14
2019-01-27T07:36:16.473Z,93744.05
2019-01-27T07:39:15.376Z,93741.14
2019-01-27T07:42:16.984Z,93737.69
2019-01-27T07:45:09.598Z,93736.64
2019-01-27T07:47:54.425Z,93715.26
2019-01-27T07:51:01.227Z,93719.73
2019-01-27T07:53:51.423Z,93711.04
2019-01-27T07:56:44.174Z,93707.34
2019-01-27T07:59:24.303Z,93703.89
2019-01-27T08:02:25.192Z,93700.42
2019-01-27T08:05:31.049Z,93704.38
2019-01-27T08:08:23.532Z,93698.84
2019-01-27T08:11:10.359Z,93698.58
2019-01-27T08:13:58.450Z,93702.27
2019-01-27T08:17:03.630Z,93689.05
2019-01-27T08:19:51.428Z,93702.23
2019-01-27T08:22:55.608Z,93700.65
2019-01-27T08:25:36.007Z,93701.17
2019-01-27T08:28:34.503Z,93700.13
2019-01-27T08:31:32.643Z,93697.75
2019-01-27T08:34:25.794Z,93683.24
2019-01-27T08:37:25.561Z,93694.09
2019-01-27T08:40:19.519Z,93689.87
2019-01-27T08:43:01.600Z,93681.44
2019-01-27T08:45:48.866Z,93678.00
2019-01-27T08:48:24.050Z,93686.67
2019-01-27T08:50:54.852Z,93679.28
2019-01-27T08:53:28.876Z,93666.66
2019-01-27T08:56:00.059Z,93680.87
2019-01-27T08:58:31.018Z,93670.00
2019-01-27T09:01:10.588Z,93666.52
2019-01-27T09:03:52.800Z,93662.77
2019-01-27T09:06:43.401Z,93660.94
2019-01-27T09:09:26.960Z,93671.23
2019-01-27T09:12:15.175Z,93655.38
2019-01-27T09:15:06.967Z,93666.20
2019-01-27T09:17:58.141Z,93667.78
2019-01-27T09:20:47.614Z,93668.59
2019-01-27T09:23:26.554Z,93663.09
2019-01-27T09:26:16.415Z,93661.50
2019-01-27T09:28:59.154Z,93671.54
2019-01-27T09:31:39.464Z,93652.01
2019-01-27T09:34:24.771Z,93654.38
2019-01-27T09:37:23.531Z,93659.13
2019-01-27T09:40:14.790Z,93655.39
2019-01-27T09:43:03.738Z,93662.51
2019-01-27T09:46:05.134Z,93659.34
2019-01-27T09:48:47.929Z,93664.61
2019-01-27T09:51:36.354Z,93664.88
2019-01-27T09:54:29.930Z,93653.78
2019-01-27T09:57:20.244Z,93651.11
2019-01-27T10:00:17.558Z,93652.37
2019-01-27T10:03:19.553Z,93646.55
2019-01-27T10:05:59.497Z,93647.35
2019-01-27T10:08:46.312Z,93644.49
2019-01-27T10:11:35.039Z,93642.66
2019-01-27T10:14:21.415Z,93645.02
2019-01-27T10:17:25.765Z,93642.59
2019-01-27T10:20:27.500Z,93647.86
2019-01-27T10:23:23.163Z,93650.77
2019-01-27T10:26:22.363Z,93630.39
2019-01-27T10:29:17.341Z,93634.59
2019-01-27T10:32:10.685Z,93636.45
2019-01-27T10:34:51.960Z,93631.69
2019-01-27T10:37:47.700Z,93611.55
2019-01-27T10:40:27.621Z,93611.53
2019-01-27T10:43:34.582Z,93609.38
2019-01-27T10:46:28.317Z,93616.69
2019-01-27T10:49:15.759Z,93618.69
2019-01-27T10:52:08.311Z,93616.67
2019-01-27T10:54:56.182Z,93607.18
2019-01-27T10:57:49.567Z,93602.77
2019-01-27T11:00:38.020Z,93595.45
2019-01-27T11:03:41.477Z,93580.48
2019-01-27T11:06:33.480Z,93569.38
2019-01-27T11:09:30.003Z,93561.99
2019-01-27T11:12:27.533Z,93556.05
2019-01-27T11:15:25.412Z,93551.58
2019-01-27T11:18:18.317Z,93559.92
2019-01-27T11:21:12.882Z,93548.30
2019-01-27T11:24:01.530Z,93552.64
2019-01-27T11:26:52.443Z,93541.17
2019-01-27T11:30:08.471Z,93539.95
2019-01-27T11:33:04.613Z,93533.95
2019-01-27T11:36:08.546Z,93520.06
2019-01-27T11:38:59.852Z,93531.52
2019-01-27T11:41:57.549Z,93536.30
2019-01-27T11:44:48.915Z,93524.70
2019-01-27T11:48:00.403Z,93516.75
2019-01-27T11:50:57.842Z,93506.98
2019-01-27T11:53:44.037Z,93499.80
2019-01-27T11:56:33.226Z,93506.75
2019-01-27T11:59:05.814Z,93503.62
2019-01-27T12:01:37.166Z,93499.70
2019-01-27T12:04:16.406Z,93494.94
2019-01-27T12:06:49.474Z,93497.81
2019-01-27T12:09:20.291Z,93497.02
2019-01-27T12:12:11.549Z,93489.58
2019-01-27T12:14:49.499Z,93487.52
2019-01-27T12:17:23.665Z,93474.33
2019-01-27T12:20:44.308Z,93483.87
2019-01-27T12:23:28.759Z,93485.76
2019-01-27T12:26:05.016Z,93476.00
2019-01-27T12:29:00.401Z,93478.64
2019-01-27T12:31:41.101Z,93465.84
2019-01-27T12:34:20.913Z,93462.61
2019-01-27T12:36:54.602Z,93452.92
2019-01-27T12:39:35.481Z,93457.09
2019-01-27T12:42:10.600Z,93451.23
2019-01-27T12:44:41.863Z,93445.10
2019-01-27T12:47:13.861Z,93442.73
2019-01-27T12:49:48.356Z,93435.14
2019-01-27T12:52:24.088Z,93442.85
2019-01-27T12:54:58.383Z,93433.73
2019-01-27T12:57:29.683Z,93421.53
2019-01-27T13:00:13.208Z,93415.08
2019-01-27T13:02:49.771Z,93408.11
2019-01-27T13:05:24.450Z,93407.48
2019-01-27T13:07:55.763Z,93398.56
2019-01-27T13:10:26.881Z,93399.35
2019-01-27T13:13:13.715Z,93384.84
2019-01-27T13:15:48.093Z,93384.36
2019-01-27T13:18:23.955Z,93387.06
2019-01-27T13:20:55.163Z,93380.14
2019-01-27T13:23:25.905Z,93387.01
2019-01-27T13:26:03.937Z,93385.87
2019-01-27T13:28:36.358Z,93380.50
2019-01-27T13:31:10.411Z,93375.71
2019-01-27T13:33:42.794Z,93372.56
2019-01-27T13:36:16.720Z,93365.09
2019-01-27T13:38:51.250Z,93364.50
2019-01-27T13:41:23.796Z,93364.34
2019-01-27T13:43:54.742Z,93367.01
2019-01-27T13:46:29.875Z,93356.67
2019-01-27T13:49:13.315Z,93373.21
2019-01-27T13:51:49.975Z,93362.44
2019-01-27T13:54:25.786Z,93369.33
2019-01-27T13:57:02.038Z,93364.89
2019-01-27T13:59:41.975Z,93363.82
2019-01-27T14:02:21.757Z,93359.02
2019-01-27T14:04:55.952Z,93365.00
2019-01-27T14:07:30.555Z,93352.77
2019-01-27T14:10:03.486Z,93357.27
2019-01-27T14:12:56.091Z,93360.92
2019-01-27T14:15:29.520Z,93354.09
2019-01-27T14:18:04.708Z,93359.94
2019-01-27T14:20:43.157Z,93356.62
2019-01-27T14:23:18.878Z,93347.70
2019-01-27T14:25:49.716Z,93360.98
2019-01-27T14:28:23.732Z,93356.28
2019-01-27T14:31:01.231Z,93362.37
2019-01-27T14:33:50.729Z,93360.24
2019-01-27T14:36:13.803Z,93353.39
2019-01-27T14:38:46.510Z,93360.86
2019-01-27T14:41:22.137Z,93354.05
2019-01-27T14:43:53.377Z,93369.12
2019-01-27T14:46:25.230Z,93361.70
2019-01-27T14:48:58.009Z,93369.75
2019-01-27T14:51:29.306Z,93368.89
2019-01-27T14:54:07.335Z,93364.39
2019-01-27T14:56:38.210Z,93356.02
2019-01-27T14:59:15.437Z,93351.56
2019-01-27T15:01:46.602Z,93362.13
2019-01-27T15:04:20.345Z,93354.20
2019-01-27T15:06:54.824Z,93362.66
2019-01-27T15:09:35.380Z,93366.49
2019-01-27T15:12:07.483Z,93362.35
2019-01-27T15:14:40.933Z,93358.74
2019-01-27T15:17:14.440Z,93363.08
2019-01-27T15:19:45.742Z,93357.58
2019-01-27T15:22:16.885Z,93355.03
2019-01-27T15:24:47.794Z,93353.52
2019-01-27T15:27:20.822Z,93349.58
2019-01-27T15:29:52.853Z,93345.39
2019-01-27T15:32:25.741Z,93354.16
2019-01-27T15:35:03.291Z,93349.17
2019-01-27T15:37:36.491Z,93348.92
2019-01-27T15:40:14.752Z,93341.34
2019-01-27T15:42:49.160Z,93341.36
2019-01-27T15:45:25.286Z,93343.22
2019-01-27T15:48:01.169Z,93349.17
2019-01-27T15:50:33.653Z,93346.01
2019-01-27T15:53:12.358Z,93347.92
2019-01-27T15:55:43.901Z,93346.50
2019-01-27T15:58:18.394Z,93353.63
2019-01-27T16:00:54.567Z,93357.63
2019-01-27T16:03:37.595Z,93358.73
2019-01-27T16:06:10.236Z,93361.06
2019-01-27T16:08:43.458Z,93364.67
2019-01-27T16:11:35.994Z,93358.22
2019-01-27T16:14:07.919Z,93358.58
2019-01-27T16:16:39.281Z,93358.92
2019-01-27T16:19:15.242Z,93361.55
2019-01-27T16:21:46.656Z,93368.14
2019-01-27T16:24:31.605Z,93362.59
2019-01-27T16:27:03.114Z,93362.01
2019-01-27T16:29:56.413Z,93361.97
2019-01-27T16:32:34.159Z,93369.91
2019-01-27T16:35:13.585Z,93365.93
2019-01-27T16:37:45.548Z,93358.29
2019-01-27T16:40:18.920Z,93356.22
2019-01-27T16:42:53.581Z,93354.34
2019-01-27T16:45:28.117Z,93359.08
2019-01-27T16:48:02.101Z,93363.48
2019-01-27T16:50:33.794Z,93364.03
2019-01-27T16:53:08.623Z,93368.08
2019-01-27T16:55:48.223Z,93360.66
2019-01-27T16:58:36.544Z,93354.80
2019-01-27T17:01:10.621Z,93364.61
2019-01-27T17:03:41.794Z,93352.88
2019-01-27T17:06:22.675Z,93353.64
2019-01-27T17:08:53.897Z,93341.03
2019-01-27T17:11:27.046Z,93345.27
2019-01-27T17:13:57.970Z,93345.80
2019-01-27T17:16:30.664Z,93345.02
2019-01-27T17:19:03.930Z,93347.18
2019-01-27T17:21:37.719Z,93340.02
2019-01-27T17:24:21.242Z,93341.34
2019-01-27T17:26:55.767Z,93338.41
2019-01-27T17:29:48.774Z,93335.16
2019-01-27T17:32:22.510Z,93338.13
2019-01-27T17:34:58.112Z,93341.30
2019-01-27T17:37:38.307Z,93337.88
2019-01-27T17:40:14.558Z,93339.73
2019-01-27T17:42:46.124Z,93344.64
2019-01-27T17:45:20.596Z,93335.40
2019-01-27T17:47:54.734Z,93336.20
2019-01-27T17:50:27.181Z,93339.75
2019-01-27T17:52:58.453Z,93333.77
2019-01-27T17:55:40.220Z,93332.98
2019-01-27T17:58:33.583Z,93331.90
2019-01-27T18:01:27.628Z,93341.39
2019-01-27T18:04:19.594Z,93338.77
2019-01-27T18:07:15.009Z,93329.95
2019-01-27T18:10:01.318Z,93329.52
2019-01-27T18:12:42.466Z,93325.30
2019-01-27T18:15:15.084Z,93320.47
2019-01-27T18:17:46.053Z,93327.34
2019-01-27T18:20:20.459Z,93330.30
2019-01-27T18:23:03.442Z,93334.15
2019-01-27T18:25:43.477Z,93327.30
2019-01-27T18:28:20.029Z,93323.59
2019-01-27T18:30:59.837Z,93332.05
2019-01-27T18:33:51.304Z,93325.66
2019-01-27T18:36:22.270Z,93323.36
2019-01-27T18:38:54.886Z,93319.95
2019-01-27T18:41:33.758Z,93317.90
2019-01-27T18:44:09.326Z,93330.30
2019-01-27T18:46:45.051Z,93322.06
2019-01-27T18:49:47.487Z,93323.38
2019-01-27T18:52:31.174Z,93318.91
2019-01-27T18:55:33.134Z,93326.83
2019-01-27T18:58:25.742Z,93326.63
2019-01-27T19:01:12.623Z,93320.58
2019-01-27T19:03:53.899Z,93325.41
2019-01-27T19:07:14.945Z,93321.55
2019-01-27T19:10:17.287Z,93308.92
2019-01-27T19:13:07.271Z,93314.22
2019-01-27T19:16:06.785Z,93308.69
2019-01-27T19:19:21.586Z,93309.45
2019-01-27T19:22:18.539Z,93307.03
2019-01-27T19:25:06.076Z,93304.38
2019-01-27T19:27:54.518Z,93299.91
2019-01-27T19:30:47.194Z,93305.95
2019-01-27T19:33:42.412Z,93308.23
2019-01-27T19:36:34.554Z,93309.08
2019-01-27T19:39:51.630Z,93307.78
2019-01-27T19:42:44.160Z,93303.83
2019-01-27T19:45:43.172Z,93308.83
2019-01-27T19:48:42.494Z,93309.81
2019-01-27T19:51:38.658Z,93308.31
2019-01-27T19:54:32.138Z,93305.06
2019-01-27T19:57:26.648Z,93314.36
2019-01-27T20:00:18.522Z,93311.47
2019-01-27T20:03:15.314Z,93321.48
2019-01-27T20:06:07.814Z,93319.13
2019-01-27T20:09:07.428Z,93317.73
2019-01-27T20:12:02.391Z,93314.40
2019-01-27T20:14:52.202Z,93317.55
2019-01-27T20:17:53.760Z,93316.46
2019-01-27T20:20:53.074Z,93321.48
2019-01-27T20:23:55.737Z,93326.81
2019-01-27T20:26:50.788Z,93320.81
2019-01-27T20:29:50.803Z,93327.69
2019-01-27T20:32:42.799Z,93326.37
2019-01-27T20:35:31.615Z,93328.20
2019-01-27T20:38:43.688Z,93335.86
2019-01-27T20:41:25.099Z,93339.03
2019-01-27T20:44:24.773Z,93340.16
2019-01-27T20:47:26.626Z,93332.27
2019-01-27T20:50:22.587Z,93336.16
2019-01-27T20:53:04.370Z,93333.69
2019-01-27T20:55:55.005Z,93317.37
2019-01-27T20:58:37.415Z,93328.75
2019-01-27T21:01:25.326Z,93330.95
2019-01-27T21:04:20.901Z,93336.24
2019-01-27T21:07:03.695Z,93339.66
2019-01-27T21:09:57.506Z,93339.39
2019-01-27T21:13:05.786Z,93336.96
2019-01-27T21:16:00.055Z,93340.33
2019-01-27T21:18:53.294Z,93353.02
2019-01-27T21:21:25.683Z,93351.67
2019-01-27T21:24:04.471Z,93356.45
2019-01-27T21:26:35.407Z,93348.56
2019-01-27T21:29:10.016Z,93353.02
2019-01-27T21:31:43.796Z,93354.90
2019-01-27T21:34:14.667Z,93351.78
2019-01-27T21:36:53.820Z,93353.89
2019-01-27T21:39:28.079Z,93352.07
2019-01-27T21:41:58.941Z,93349.14
2019-01-27T21:44:32.455Z,93348.56
2019-01-27T21:47:04.912Z,93346.44
2019-01-27T21:49:41.423Z,93338.75
2019-01-27T21:52:18.172Z,93347.48
2019-01-27T21:54:49.226Z,93349.34
2019-01-27T21:57:26.402Z,93345.11
2019-01-27T21:59:58.965Z,93346.16
2019-01-27T22:02:31.337Z,93343.98
2019-01-27T22:05:08.378Z,93346.39
2019-01-27T22:10:44.386Z,93340.28
2019-01-27T22:13:15.549Z,93347.41
2019-01-27T22:15:46.793Z,93349.56
2019-01-27T22:18:20.582Z,93352.16
2019-01-27T22:20:57.455Z,93354.84
2019-01-27T22:23:30.120Z,93353.02
2019-01-27T22:26:06.584Z,93349.39
2019-01-27T22:28:37.540Z,93351.03
2019-01-27T22:31:08.697Z,93358.43
2019-01-27T22:33:39.523Z,93354.70
2019-01-27T22:36:14.716Z,93354.98
2019-01-27T22:38:46.856Z,93361.84
2019-01-27T22:41:23.548Z,93361.58
2019-01-27T22:43:54.353Z,93367.39
2019-01-27T22:46:29.159Z,93360.50
2019-01-27T22:48:59.931Z,93357.86
2019-01-27T22:51:36.534Z,93357.09
2019-01-27T22:54:07.530Z,93356.83
2019-01-27T22:56:38.525Z,93363.96
2019-01-27T22:59:09.650Z,93364.97
2019-01-27T23:01:43.398Z,93359.47
2019-01-27T23:04:18.427Z,93363.43
2019-01-27T23:06:49.821Z,93367.12
2019-01-27T23:09:22.136Z,93366.58
2019-01-27T23:11:55.029Z,93370.56
2019-01-27T23:14:29.209Z,93363.48
2019-01-27T23:17:00.055Z,93370.27
2019-01-27T23:19:31.427Z,93370.30
2019-01-27T23:22:02.361Z,93368.52
2019-01-27T23:24:33.198Z,93376.69
2019-01-27T23:27:04.657Z,93379.52
2019-01-27T23:29:36.534Z,93377.20
2019-01-27T23:32:07.372Z,93380.32
2019-01-27T23:34:38.423Z,93385.85
2019-01-27T23:37:09.450Z,93386.11
2019-01-27T23:39:40.248Z,93383.45
2019-01-27T23:42:11.140Z,93379.52
2019-01-27T23:44:42.226Z,93390.05
2019-01-27T23:47:13.548Z,93388.81
2019-01-27T23:49:44.328Z,93395.67
2019-01-27T23:52:15.381Z,93400.09
2019-01-27T23:54:49.619Z,93399.82
2019-01-27T23:57:20.427Z,93402.20
2019-01-27T23:59:51.474Z,93404.56
